sensor_id;sensor_type;location;lat;lon;timestamp;pressure;altitude;pressure_sealevel;temperature;humidity
8697;BME280;4385;48.848;8.924;2023-02-19T00:01:30;97926.56;;;18.25;100.00
8697;BME280;4385;48.848;8.924;2023-02-19T00:03:58;97929.19;;;18.22;100.00
8697;BME280;4385;48.848;8.924;2023-02-19T00:06:25;97919.00;;;18.20;100.00
8697;BME280;4385;48.848;8.924;2023-02-19T00:08:51;97915.59;;;18.18;100.00
8697;BME280;4385;48.848;8.924;2023-02-19T00:11:18;97914.81;;;18.14;100.00
8697;BME280;4385;48.848;8.924;2023-02-19T00:13:46;97913.97;;;18.14;100.00
8697;BME280;4385;48.848;8.924;2023-02-19T00:16:32;97917.41;;;18.13;100.00
8697;BME280;4385;48.848;8.924;2023-02-19T00:18:59;97910.59;;;18.10;100.00
8697;BME280;4385;48.848;8.924;2023-02-19T00:21:26;97911.47;;;18.07;100.00
8697;BME280;4385;48.848;8.924;2023-02-19T00:23:53;97908.09;;;18.05;100.00
8697;BME280;4385;48.848;8.924;2023-02-19T00:26:20;97903.91;;;18.03;100.00
8697;BME280;4385;48.848;8.924;2023-02-19T00:28:47;97913.25;;;18.02;100.00
8697;BME280;4385;48.848;8.924;2023-02-19T00:33:47;97905.66;;;17.98;100.00
8697;BME280;4385;48.848;8.924;2023-02-19T00:36:13;97913.31;;;17.96;100.00
8697;BME280;4385;48.848;8.924;2023-02-19T00:38:40;97915.06;;;17.95;100.00
8697;BME280;4385;48.848;8.924;2023-02-19T00:41:07;97915.91;;;17.94;100.00
8697;BME280;4385;48.848;8.924;2023-02-19T00:43:48;97916.78;;;17.92;100.00
8697;BME280;4385;48.848;8.924;2023-02-19T00:46:24;97916.81;;;17.89;100.00
8697;BME280;4385;48.848;8.924;2023-02-19T00:48:49;97917.69;;;17.88;100.00
8697;BME280;4385;48.848;8.924;2023-02-19T00:51:17;97912.63;;;17.86;100.00
8697;BME280;4385;48.848;8.924;2023-02-19T00:53:43;97901.63;;;17.82;100.00
8697;BME280;4385;48.848;8.924;2023-02-19T00:56:08;97894.84;;;17.81;100.00
8697;BME280;4385;48.848;8.924;2023-02-19T00:58:34;97899.97;;;17.80;100.00
8697;BME280;4385;48.848;8.924;2023-02-19T01:00:59;97898.25;;;17.79;100.00
8697;BME280;4385;48.848;8.924;2023-02-19T01:03:25;97891.50;;;17.76;100.00
8697;BME280;4385;48.848;8.924;2023-02-19T01:05:51;97887.28;;;17.75;100.00
8697;BME280;4385;48.848;8.924;2023-02-19T01:08:17;97890.66;;;17.74;100.00
8697;BME280;4385;48.848;8.924;2023-02-19T01:10:42;97883.88;;;17.73;100.00
8697;BME280;4385;48.848;8.924;2023-02-19T01:13:08;97889.03;;;17.70;100.00
8697;BME280;4385;48.848;8.924;2023-02-19T01:15:34;97889.03;;;17.70;100.00
8697;BME280;4385;48.848;8.924;2023-02-19T01:17:59;97883.09;;;17.68;100.00
8697;BME280;4385;48.848;8.924;2023-02-19T01:20:24;97878.88;;;17.67;100.00
8697;BME280;4385;48.848;8.924;2023-02-19T01:22:50;97879.75;;;17.64;100.00
8697;BME280;4385;48.848;8.924;2023-02-19T01:25:16;97883.97;;;17.65;100.00
8697;BME280;4385;48.848;8.924;2023-02-19T01:27:41;97871.28;;;17.62;100.00
8697;BME280;4385;48.848;8.924;2023-02-19T01:30:07;97873.81;;;17.62;100.00
8697;BME280;4385;48.848;8.924;2023-02-19T01:32:32;97874.72;;;17.60;100.00
8697;BME280;4385;48.848;8.924;2023-02-19T01:34:57;97878.09;;;17.58;100.00
8697;BME280;4385;48.848;8.924;2023-02-19T01:37:23;97869.66;;;17.56;100.00
8697;BME280;4385;48.848;8.924;2023-02-19T01:39:48;97878.16;;;17.55;100.00
8697;BME280;4385;48.848;8.924;2023-02-19T01:42:15;97874.81;;;17.53;100.00
8697;BME280;4385;48.848;8.924;2023-02-19T01:47:09;97874.84;;;17.50;100.00
8697;BME280;4385;48.848;8.924;2023-02-19T01:49:38;97879.06;;;17.50;100.00
8697;BME280;4385;48.848;8.924;2023-02-19T01:52:13;97878.22;;;17.49;100.00
8697;BME280;4385;48.848;8.924;2023-02-19T01:54:41;97874.88;;;17.47;100.00
8697;BME280;4385;48.848;8.924;2023-02-19T01:57:12;97876.56;;;17.47;100.00
8697;BME280;4385;48.848;8.924;2023-02-19T01:59:41;97880.81;;;17.46;100.00
8697;BME280;4385;48.848;8.924;2023-02-19T02:02:07;97882.56;;;17.44;100.00
8697;BME280;4385;48.848;8.924;2023-02-19T02:04:33;97885.09;;;17.44;100.00
8697;BME280;4385;48.848;8.924;2023-02-19T02:07:01;97889.34;;;17.43;100.00
8697;BME280;4385;48.848;8.924;2023-02-19T02:09:28;97881.72;;;17.42;100.00
8697;BME280;4385;48.848;8.924;2023-02-19T02:12:13;97863.91;;;17.40;100.00
8697;BME280;4385;48.848;8.924;2023-02-19T02:14:42;97870.69;;;17.40;100.00
8697;BME280;4385;48.848;8.924;2023-02-19T02:17:25;97866.47;;;17.39;100.00
8697;BME280;4385;48.848;8.924;2023-02-19T02:22:43;97856.34;;;17.34;100.00
8697;BME280;4385;48.848;8.924;2023-02-19T02:28:28;97841.06;;;17.32;100.00
8697;BME280;4385;48.848;8.924;2023-02-19T02:31:08;97837.69;;;17.30;100.00
8697;BME280;4385;48.848;8.924;2023-02-19T02:33:43;97837.69;;;17.30;100.00
8697;BME280;4385;48.848;8.924;2023-02-19T02:36:23;97828.38;;;17.29;100.00
8697;BME280;4385;48.848;8.924;2023-02-19T02:38:51;97844.53;;;17.28;100.00
8697;BME280;4385;48.848;8.924;2023-02-19T02:41:18;97842.81;;;17.27;100.00
8697;BME280;4385;48.848;8.924;2023-02-19T02:43:44;97830.06;;;17.27;100.00
8697;BME280;4385;48.848;8.924;2023-02-19T02:46:11;97832.63;;;17.27;100.00
8697;BME280;4385;48.848;8.924;2023-02-19T02:48:49;97831.81;;;17.27;100.00
8697;BME280;4385;48.848;8.924;2023-02-19T02:51:27;97833.50;;;17.26;100.00
8697;BME280;4385;48.848;8.924;2023-02-19T02:54:04;97830.97;;;17.25;100.00
8697;BME280;4385;48.848;8.924;2023-02-19T02:56:51;97834.38;;;17.25;100.00
8697;BME280;4385;48.848;8.924;2023-02-19T02:59:19;97828.41;;;17.25;100.00
8697;BME280;4385;48.848;8.924;2023-02-19T03:01:49;97831.84;;;17.24;100.00
8697;BME280;4385;48.848;8.924;2023-02-19T03:05:01;97830.97;;;17.23;100.00
8697;BME280;4385;48.848;8.924;2023-02-19T03:10:32;97832.69;;;17.21;100.00
8697;BME280;4385;48.848;8.924;2023-02-19T03:13:01;97831.03;;;17.20;100.00
8697;BME280;4385;48.848;8.924;2023-02-19T03:16:14;97830.16;;;17.19;100.00
8697;BME280;4385;48.848;8.924;2023-02-19T03:19:00;97830.16;;;17.19;100.00
8697;BME280;4385;48.848;8.924;2023-02-19T03:21:59;97824.25;;;17.19;100.00
8697;BME280;4385;48.848;8.924;2023-02-19T03:24:29;97820.00;;;17.18;100.00
8697;BME280;4385;48.848;8.924;2023-02-19T03:27:15;97820.88;;;17.17;100.00
8697;BME280;4385;48.848;8.924;2023-02-19T03:29:45;97814.94;;;17.15;100.00
8697;BME280;4385;48.848;8.924;2023-02-19T03:32:17;97810.72;;;17.14;100.00
8697;BME280;4385;48.848;8.924;2023-02-19T03:34:54;97815.81;;;17.14;100.00
8697;BME280;4385;48.848;8.924;2023-02-19T03:37:25;97812.44;;;17.12;100.00
8697;BME280;4385;48.848;8.924;2023-02-19T03:39:53;97809.88;;;17.12;100.00
8697;BME280;4385;48.848;8.924;2023-02-19T03:42:38;97811.59;;;17.11;100.00
8697;BME280;4385;48.848;8.924;2023-02-19T03:50:34;97810.78;;;17.06;100.00
8697;BME280;4385;48.848;8.924;2023-02-19T03:56:07;97812.47;;;17.05;100.00
8697;BME280;4385;48.848;8.924;2023-02-19T03:58:39;97812.47;;;17.05;100.00
8697;BME280;4385;48.848;8.924;2023-02-19T04:01:52;97820.97;;;17.04;100.00
8697;BME280;4385;48.848;8.924;2023-02-19T04:06:47;97827.75;;;17.04;100.00
8697;BME280;4385;48.848;8.924;2023-02-19T04:09:18;97823.53;;;17.04;100.00
8697;BME280;4385;48.848;8.924;2023-02-19T04:11:44;97838.81;;;17.04;100.00
8697;BME280;4385;48.848;8.924;2023-02-19T04:14:35;97836.25;;;17.04;100.00
8697;BME280;4385;48.848;8.924;2023-02-19T04:17:08;97840.50;;;17.02;100.00
8697;BME280;4385;48.848;8.924;2023-02-19T04:19:39;97840.50;;;17.02;100.00
8697;BME280;4385;48.848;8.924;2023-02-19T04:22:07;97837.16;;;17.00;100.00
8697;BME280;4385;48.848;8.924;2023-02-19T04:24:37;97839.72;;;16.99;100.00
8697;BME280;4385;48.848;8.924;2023-02-19T04:27:05;97843.97;;;16.97;100.00
8697;BME280;4385;48.848;8.924;2023-02-19T04:29:31;97840.59;;;16.94;100.00
8697;BME280;4385;48.848;8.924;2023-02-19T04:31:56;97849.09;;;16.95;100.00
8697;BME280;4385;48.848;8.924;2023-02-19T04:34:21;97855.88;;;16.93;100.00
8697;BME280;4385;48.848;8.924;2023-02-19T04:36:46;97858.44;;;16.93;100.00
8697;BME280;4385;48.848;8.924;2023-02-19T04:39:12;97853.34;;;16.91;100.00
8697;BME280;4385;48.848;8.924;2023-02-19T04:41:37;97849.97;;;16.91;100.00
8697;BME280;4385;48.848;8.924;2023-02-19T04:44:02;97857.63;;;16.91;100.00
8697;BME280;4385;48.848;8.924;2023-02-19T04:46:28;97857.63;;;16.91;100.00
8697;BME280;4385;48.848;8.924;2023-02-19T04:48:54;97863.53;;;16.90;100.00
8697;BME280;4385;48.848;8.924;2023-02-19T04:51:19;97874.59;;;16.90;100.00
8697;BME280;4385;48.848;8.924;2023-02-19T04:53:45;97873.72;;;16.90;100.00
8697;BME280;4385;48.848;8.924;2023-02-19T04:56:12;97883.91;;;16.90;100.00
8697;BME280;4385;48.848;8.924;2023-02-19T04:58:38;97879.69;;;16.89;100.00
8697;BME280;4385;48.848;8.924;2023-02-19T05:01:04;97877.16;;;16.89;100.00
8697;BME280;4385;48.848;8.924;2023-02-19T05:03:30;97875.47;;;16.86;100.00
8697;BME280;4385;48.848;8.924;2023-02-19T05:05:56;97878.03;;;16.86;100.00
8697;BME280;4385;48.848;8.924;2023-02-19T05:08:21;97873.78;;;16.83;100.00
8697;BME280;4385;48.848;8.924;2023-02-19T05:10:47;97884.84;;;16.82;100.00
8697;BME280;4385;48.848;8.924;2023-02-19T05:13:12;97889.94;;;16.82;100.00
8697;BME280;4385;48.848;8.924;2023-02-19T05:15:37;97901.81;;;16.82;100.00
8697;BME280;4385;48.848;8.924;2023-02-19T05:18:03;97897.59;;;16.79;100.00
8697;BME280;4385;48.848;8.924;2023-02-19T05:20:28;97892.50;;;16.79;100.00
8697;BME280;4385;48.848;8.924;2023-02-19T05:22:53;97881.44;;;16.80;100.00
8697;BME280;4385;48.848;8.924;2023-02-19T05:25:19;97887.41;;;16.79;100.00
8697;BME280;4385;48.848;8.924;2023-02-19T05:27:44;97880.66;;;16.78;100.00
8697;BME280;4385;48.848;8.924;2023-02-19T05:30:10;97885.72;;;16.78;100.00
8697;BME280;4385;48.848;8.924;2023-02-19T05:32:37;97881.47;;;16.79;100.00
8697;BME280;4385;48.848;8.924;2023-02-19T05:35:02;97887.41;;;16.79;100.00
8697;BME280;4385;48.848;8.924;2023-02-19T05:37:28;97887.41;;;16.79;100.00
8697;BME280;4385;48.848;8.924;2023-02-19T05:39:53;97899.28;;;16.77;100.00
8697;BME280;4385;48.848;8.924;2023-02-19T05:42:18;97900.16;;;16.76;100.00
8697;BME280;4385;48.848;8.924;2023-02-19T05:44:44;97915.44;;;16.76;100.00
8697;BME280;4385;48.848;8.924;2023-02-19T05:47:09;97923.09;;;16.75;100.00
8697;BME280;4385;48.848;8.924;2023-02-19T05:49:34;97914.59;;;16.74;100.00
8697;BME280;4385;48.848;8.924;2023-02-19T05:52:00;97911.22;;;16.74;100.00
8697;BME280;4385;48.848;8.924;2023-02-19T05:54:27;97914.59;;;16.74;100.00
8697;BME280;4385;48.848;8.924;2023-02-19T05:56:53;97923.94;;;16.74;100.00
8697;BME280;4385;48.848;8.924;2023-02-19T05:59:21;97918.00;;;16.73;100.00
8697;BME280;4385;48.848;8.924;2023-02-19T06:01:47;97923.09;;;16.73;100.00
8697;BME280;4385;48.848;8.924;2023-02-19T06:04:13;97916.31;;;16.72;100.00
8697;BME280;4385;48.848;8.924;2023-02-19T06:06:40;97922.25;;;16.71;100.00
8697;BME280;4385;48.848;8.924;2023-02-19T06:09:06;97913.78;;;16.72;100.00
8697;BME280;4385;48.848;8.924;2023-02-19T06:11:32;97905.28;;;16.72;100.00
8697;BME280;4385;48.848;8.924;2023-02-19T06:13:57;97912.06;;;16.73;100.00
8697;BME280;4385;48.848;8.924;2023-02-19T06:16:22;97902.75;;;16.70;100.00
8697;BME280;4385;48.848;8.924;2023-02-19T06:18:48;97919.72;;;16.69;100.00
8697;BME280;4385;48.848;8.924;2023-02-19T06:21:14;97916.34;;;16.69;100.00
8697;BME280;4385;48.848;8.924;2023-02-19T06:23:40;97924.81;;;16.68;100.00
8697;BME280;4385;48.848;8.924;2023-02-19T06:26:07;97914.66;;;16.66;100.00
8697;BME280;4385;48.848;8.924;2023-02-19T06:28:32;97931.66;;;16.66;100.00
8697;BME280;4385;48.848;8.924;2023-02-19T06:30:58;97925.72;;;16.64;100.00
8697;BME280;4385;48.848;8.924;2023-02-19T06:33:23;97939.31;;;16.63;100.00
8697;BME280;4385;48.848;8.924;2023-02-19T06:35:50;97946.06;;;16.62;100.00
8697;BME280;4385;48.848;8.924;2023-02-19T06:38:15;97941.84;;;16.61;100.00
8697;BME280;4385;48.848;8.924;2023-02-19T06:40:40;97943.53;;;16.61;100.00
8697;BME280;4385;48.848;8.924;2023-02-19T06:43:05;97954.59;;;16.61;100.00
8697;BME280;4385;48.848;8.924;2023-02-19T06:45:31;97943.53;;;16.61;100.00
8697;BME280;4385;48.848;8.924;2023-02-19T06:47:56;97952.03;;;16.60;100.00
8697;BME280;4385;48.848;8.924;2023-02-19T06:50:21;97956.28;;;16.59;100.00
8697;BME280;4385;48.848;8.924;2023-02-19T06:52:46;97958.81;;;16.59;100.00
8697;BME280;4385;48.848;8.924;2023-02-19T06:55:12;97957.97;;;16.60;100.00
8697;BME280;4385;48.848;8.924;2023-02-19T06:57:37;97974.94;;;16.61;100.00
8697;BME280;4385;48.848;8.924;2023-02-19T07:00:02;97975.75;;;16.62;100.00
8697;BME280;4385;48.848;8.924;2023-02-19T07:02:28;97977.44;;;16.66;100.00
8697;BME280;4385;48.848;8.924;2023-02-19T07:04:53;97994.38;;;16.68;100.00
8697;BME280;4385;48.848;8.924;2023-02-19T07:07:19;97990.13;;;16.70;100.00
8697;BME280;4385;48.848;8.924;2023-02-19T07:09:44;97990.94;;;16.74;100.00
8697;BME280;4385;48.848;8.924;2023-02-19T07:12:09;97990.91;;;16.80;100.00
8697;BME280;4385;48.848;8.924;2023-02-19T07:14:34;97999.34;;;16.86;100.00
8697;BME280;4385;48.848;8.924;2023-02-19T07:17:00;98001.84;;;16.92;100.00
8697;BME280;4385;48.848;8.924;2023-02-19T07:19:25;97981.44;;;16.97;100.00
8697;BME280;4385;48.848;8.924;2023-02-19T07:21:50;97977.19;;;17.00;100.00
8697;BME280;4385;48.848;8.924;2023-02-19T07:24:16;97987.34;;;17.03;100.00
8697;BME280;4385;48.848;8.924;2023-02-19T07:26:41;97989.03;;;17.07;100.00
8697;BME280;4385;48.848;8.924;2023-02-19T07:29:08;97979.66;;;17.11;100.00
8697;BME280;4385;48.848;8.924;2023-02-19T07:31:34;97978.78;;;17.14;100.00
8697;BME280;4385;48.848;8.924;2023-02-19T07:33:59;97986.41;;;17.15;100.00
8697;BME280;4385;48.848;8.924;2023-02-19T07:36:24;97984.72;;;17.16;100.00
8697;BME280;4385;48.848;8.924;2023-02-19T07:38:57;98002.56;;;17.16;100.00
8697;BME280;4385;48.848;8.924;2023-02-19T07:41:23;98003.38;;;17.16;100.00
8697;BME280;4385;48.848;8.924;2023-02-19T07:43:49;98012.75;;;17.16;100.00
8697;BME280;4385;48.848;8.924;2023-02-19T07:46:14;98010.19;;;17.16;100.00
8697;BME280;4385;48.848;8.924;2023-02-19T07:48:41;98027.16;;;17.15;100.00
8697;BME280;4385;48.848;8.924;2023-02-19T07:51:10;98029.72;;;17.15;100.00
8697;BME280;4385;48.848;8.924;2023-02-19T07:53:35;98028.03;;;17.14;100.00
8697;BME280;4385;48.848;8.924;2023-02-19T07:56:03;98031.41;;;17.15;100.00
8697;BME280;4385;48.848;8.924;2023-02-19T07:58:29;98038.22;;;17.16;100.00
8697;BME280;4385;48.848;8.924;2023-02-19T08:00:54;98039.88;;;17.17;100.00
8697;BME280;4385;48.848;8.924;2023-02-19T08:03:19;98043.28;;;17.19;100.00
8697;BME280;4385;48.848;8.924;2023-02-19T08:05:45;98039.00;;;17.21;100.00
8697;BME280;4385;48.848;8.924;2023-02-19T08:08:12;98038.97;;;17.24;100.00
8697;BME280;4385;48.848;8.924;2023-02-19T08:10:37;98052.53;;;17.28;100.00
8697;BME280;4385;48.848;8.924;2023-02-19T08:13:22;98060.13;;;17.32;100.00
8697;BME280;4385;48.848;8.924;2023-02-19T08:15:53;98055.00;;;17.36;100.00
8697;BME280;4385;48.848;8.924;2023-02-19T08:18:20;98051.56;;;17.40;100.00
8697;BME280;4385;48.848;8.924;2023-02-19T08:20:46;98043.06;;;17.44;100.00
8697;BME280;4385;48.848;8.924;2023-02-19T08:23:12;98054.91;;;17.47;100.00
8697;BME280;4385;48.848;8.924;2023-02-19T08:25:37;98064.25;;;17.48;100.00
8697;BME280;4385;48.848;8.924;2023-02-19T08:28:04;98072.75;;;17.48;100.00
8697;BME280;4385;48.848;8.924;2023-02-19T08:30:31;98085.47;;;17.48;100.00
8697;BME280;4385;48.848;8.924;2023-02-19T08:32:58;98089.72;;;17.49;100.00
8697;BME280;4385;48.848;8.924;2023-02-19T08:35:23;98085.47;;;17.48;100.00
8697;BME280;4385;48.848;8.924;2023-02-19T08:37:49;98086.34;;;17.49;100.00
8697;BME280;4385;48.848;8.924;2023-02-19T08:40:14;98099.06;;;17.50;100.00
8697;BME280;4385;48.848;8.924;2023-02-19T08:42:40;98094.78;;;17.51;100.00
8697;BME280;4385;48.848;8.924;2023-02-19T08:45:05;98099.88;;;17.52;100.00
8697;BME280;4385;48.848;8.924;2023-02-19T08:47:35;98094.78;;;17.52;100.00
8697;BME280;4385;48.848;8.924;2023-02-19T08:50:00;98100.72;;;17.53;100.00
8697;BME280;4385;48.848;8.924;2023-02-19T08:52:26;98103.28;;;17.53;100.00
8697;BME280;4385;48.848;8.924;2023-02-19T08:54:51;98099.06;;;17.52;100.00
8697;BME280;4385;48.848;8.924;2023-02-19T08:57:17;98086.31;;;17.50;100.00
8697;BME280;4385;48.848;8.924;2023-02-19T08:59:43;98083.78;;;17.50;100.00
8697;BME280;4385;48.848;8.924;2023-02-19T09:02:08;98078.69;;;17.50;100.00
8697;BME280;4385;48.848;8.924;2023-02-19T09:04:34;98080.34;;;17.51;100.00
8697;BME280;4385;48.848;8.924;2023-02-19T09:07:02;98074.38;;;17.54;100.00
8697;BME280;4385;48.848;8.924;2023-02-19T09:09:32;98082.00;;;17.55;100.00
8697;BME280;4385;48.848;8.924;2023-02-19T09:11:57;98086.25;;;17.58;100.00
8697;BME280;4385;48.848;8.924;2023-02-19T09:14:22;98101.53;;;17.61;100.00
8697;BME280;4385;48.848;8.924;2023-02-19T09:16:48;98107.44;;;17.63;100.00
8697;BME280;4385;48.848;8.924;2023-02-19T09:19:13;98109.94;;;17.66;100.00
8697;BME280;4385;48.848;8.924;2023-02-19T09:21:38;98112.47;;;17.68;100.00
8697;BME280;4385;48.848;8.924;2023-02-19T09:24:03;98109.06;;;17.72;100.00
8697;BME280;4385;48.848;8.924;2023-02-19T09:26:29;98117.53;;;17.74;100.00
8697;BME280;4385;48.848;8.924;2023-02-19T09:28:54;98120.06;;;17.76;100.00
8697;BME280;4385;48.848;8.924;2023-02-19T09:31:19;98126.84;;;17.78;100.00
8697;BME280;4385;48.848;8.924;2023-02-19T09:33:46;98119.19;;;17.81;100.00
8697;BME280;4385;48.848;8.924;2023-02-19T09:36:13;98113.22;;;17.82;100.00
8697;BME280;4385;48.848;8.924;2023-02-19T09:38:39;98116.59;;;17.85;100.00
8697;BME280;4385;48.848;8.924;2023-02-19T09:41:07;98135.25;;;17.87;100.00
8697;BME280;4385;48.848;8.924;2023-02-19T09:43:33;98134.44;;;17.85;100.00
8697;BME280;4385;48.848;8.924;2023-02-19T09:46:16;98142.91;;;17.85;100.00
8697;BME280;4385;48.848;8.924;2023-02-19T09:48:46;98146.34;;;17.84;100.00
8697;BME280;4385;48.848;8.924;2023-02-19T09:51:12;98152.31;;;17.81;100.00
8697;BME280;4385;48.848;8.924;2023-02-19T09:53:45;98154.88;;;17.81;100.00
8697;BME280;4385;48.848;8.924;2023-02-19T09:56:13;98150.59;;;17.82;100.00
8697;BME280;4385;48.848;8.924;2023-02-19T09:58:47;98142.97;;;17.80;100.00
8697;BME280;4385;48.848;8.924;2023-02-19T10:01:14;98142.97;;;17.80;100.00
8697;BME280;4385;48.848;8.924;2023-02-19T10:03:43;98148.06;;;17.80;100.00
8697;BME280;4385;48.848;8.924;2023-02-19T10:06:17;98141.25;;;17.82;100.00
8697;BME280;4385;48.848;8.924;2023-02-19T10:08:45;98134.44;;;17.85;100.00
8697;BME280;4385;48.848;8.924;2023-02-19T10:11:11;98134.44;;;17.86;100.00
8697;BME280;4385;48.848;8.924;2023-02-19T10:13:42;98144.63;;;17.88;100.00
8697;BME280;4385;48.848;8.924;2023-02-19T10:16:12;98141.19;;;17.90;100.00
8697;BME280;4385;48.848;8.924;2023-02-19T10:18:42;98154.75;;;17.94;100.00
8697;BME280;4385;48.848;8.924;2023-02-19T10:21:17;98152.19;;;17.97;100.00
8697;BME280;4385;48.848;8.924;2023-02-19T10:23:44;98158.94;;;18.01;100.00
8697;BME280;4385;48.848;8.924;2023-02-19T10:26:11;98161.44;;;18.04;100.00
8697;BME280;4385;48.848;8.924;2023-02-19T10:28:37;98169.94;;;18.06;100.00
8697;BME280;4385;48.848;8.924;2023-02-19T10:31:05;98171.63;;;18.07;100.00
8697;BME280;4385;48.848;8.924;2023-02-19T10:33:31;98180.13;;;18.08;100.00
8697;BME280;4385;48.848;8.924;2023-02-19T10:36:04;98176.72;;;18.09;100.00
8697;BME280;4385;48.848;8.924;2023-02-19T10:41:12;98178.41;;;18.08;100.00
8697;BME280;4385;48.848;8.924;2023-02-19T10:43:41;98184.38;;;18.07;100.00
8697;BME280;4385;48.848;8.924;2023-02-19T10:46:19;98178.44;;;18.05;100.00
8697;BME280;4385;48.848;8.924;2023-02-19T10:48:52;98189.50;;;18.04;100.00
8697;BME280;4385;48.848;8.924;2023-02-19T10:51:19;98188.66;;;18.02;100.00
8697;BME280;4385;48.848;8.924;2023-02-19T10:53:51;98193.78;;;18.01;100.00
8697;BME280;4385;48.848;8.924;2023-02-19T10:56:27;98207.41;;;17.98;100.00
8697;BME280;4385;48.848;8.924;2023-02-19T10:58:54;98211.66;;;17.96;100.00
8697;BME280;4385;48.848;8.924;2023-02-19T11:01:23;98215.94;;;17.95;100.00
8697;BME280;4385;48.848;8.924;2023-02-19T11:04:15;98217.63;;;17.97;100.00
8697;BME280;4385;48.848;8.924;2023-02-19T11:06:41;98221.00;;;17.99;100.00
8697;BME280;4385;48.848;8.924;2023-02-19T11:09:23;98202.28;;;18.01;100.00
8697;BME280;4385;48.848;8.924;2023-02-19T11:11:51;98216.69;;;18.05;100.00
8697;BME280;4385;48.848;8.924;2023-02-19T11:14:19;98214.97;;;18.09;100.00
8697;BME280;4385;48.848;8.924;2023-02-19T11:16:58;98215.81;;;18.13;100.00
8697;BME280;4385;48.848;8.924;2023-02-19T11:19:39;98220.03;;;18.15;100.00
8697;BME280;4385;48.848;8.924;2023-02-19T11:22:31;98212.34;;;18.20;100.00
8697;BME280;4385;48.848;8.924;2023-02-19T11:25:20;98215.72;;;18.22;100.00
8697;BME280;4385;48.848;8.924;2023-02-19T11:27:55;98214.84;;;18.25;100.00
8697;BME280;4385;48.848;8.924;2023-02-19T11:30:41;98202.94;;;18.25;100.00
8697;BME280;4385;48.848;8.924;2023-02-19T11:35:42;98186.75;;;18.28;100.00
8697;BME280;4385;48.848;8.924;2023-02-19T11:38:10;98179.09;;;18.28;100.00
8697;BME280;4385;48.848;8.924;2023-02-19T11:40:49;98175.69;;;18.29;100.00
8697;BME280;4385;48.848;8.924;2023-02-19T11:51:48;98189.25;;;18.34;100.00
8697;BME280;4385;48.848;8.924;2023-02-19T11:54:33;98205.41;;;18.35;100.00
8697;BME280;4385;48.848;8.924;2023-02-19T11:57:17;98198.59;;;18.34;100.00
8697;BME280;4385;48.848;8.924;2023-02-19T12:00:01;98211.34;;;18.35;100.00
8697;BME280;4385;48.848;8.924;2023-02-19T12:05:33;98212.19;;;18.36;100.00
8697;BME280;4385;48.848;8.924;2023-02-19T12:11:34;98204.44;;;18.43;100.00
8697;BME280;4385;48.848;8.924;2023-02-19T12:14:20;98206.97;;;18.47;100.00
8697;BME280;4385;48.848;8.924;2023-02-19T12:22:25;98206.84;;;18.59;100.00
8697;BME280;4385;48.848;8.924;2023-02-19T12:27:53;98180.34;;;18.68;100.00
8697;BME280;4385;48.848;8.924;2023-02-19T12:30:34;98178.63;;;18.72;100.00
8697;BME280;4385;48.848;8.924;2023-02-19T12:33:32;98176.88;;;18.75;100.00
8697;BME280;4385;48.848;8.924;2023-02-19T12:38:44;98169.97;;;18.82;100.00
8697;BME280;4385;48.848;8.924;2023-02-19T12:41:42;98171.69;;;18.83;100.00
8697;BME280;4385;48.848;8.924;2023-02-19T12:44:19;98175.88;;;18.86;100.00
8697;BME280;4385;48.848;8.924;2023-02-19T12:46:51;98183.53;;;18.86;100.00
8697;BME280;4385;48.848;8.924;2023-02-19T12:51:51;98179.31;;;18.85;100.00
8697;BME280;4385;48.848;8.924;2023-02-19T12:54:34;98178.47;;;18.84;100.00
8697;BME280;4385;48.848;8.924;2023-02-19T12:57:11;98181.88;;;18.85;100.00
8697;BME280;4385;48.848;8.924;2023-02-19T12:59:45;98189.56;;;18.83;100.00
8697;BME280;4385;48.848;8.924;2023-02-19T13:02:21;98163.19;;;18.81;100.00
8697;BME280;4385;48.848;8.924;2023-02-19T13:05:05;98176.81;;;18.81;100.00
8697;BME280;4385;48.848;8.924;2023-02-19T13:07:39;98182.75;;;18.80;100.00
8697;BME280;4385;48.848;8.924;2023-02-19T13:10:40;98177.66;;;18.80;100.00
8697;BME280;4385;48.848;8.924;2023-02-19T13:13:20;98181.06;;;18.79;100.00
8697;BME280;4385;48.848;8.924;2023-02-19T13:15:54;98193.84;;;18.78;100.00
8697;BME280;4385;48.848;8.924;2023-02-19T13:18:29;98186.22;;;18.76;100.00
8697;BME280;4385;48.848;8.924;2023-02-19T13:20:56;98180.25;;;18.76;100.00
8697;BME280;4385;48.848;8.924;2023-02-19T13:23:30;98180.28;;;18.74;100.00
8697;BME280;4385;48.848;8.924;2023-02-19T13:26:41;98172.63;;;18.74;100.00
8697;BME280;4385;48.848;8.924;2023-02-19T13:29:18;98189.66;;;18.75;100.00
8697;BME280;4385;48.848;8.924;2023-02-19T13:32:18;98193.03;;;18.74;100.00
8697;BME280;4385;48.848;8.924;2023-02-19T13:37:13;98186.25;;;18.73;100.00
8697;BME280;4385;48.848;8.924;2023-02-19T13:39:51;98187.97;;;18.71;100.00
8697;BME280;4385;48.848;8.924;2023-02-19T13:42:30;98191.41;;;18.70;100.00
8697;BME280;4385;48.848;8.924;2023-02-19T13:44:57;98179.50;;;18.69;100.00
8697;BME280;4385;48.848;8.924;2023-02-19T13:47:45;98171.00;;;18.67;100.00
8697;BME280;4385;48.848;8.924;2023-02-19T13:50:21;98165.06;;;18.65;100.00
8697;BME280;4385;48.848;8.924;2023-02-19T13:52:47;98165.09;;;18.62;100.00
8697;BME280;4385;48.848;8.924;2023-02-19T14:00:58;98162.63;;;18.55;100.00
8697;BME280;4385;48.848;8.924;2023-02-19T14:03:48;98166.91;;;18.55;100.00
8697;BME280;4385;48.848;8.924;2023-02-19T14:06:17;98155.00;;;18.54;100.00
8697;BME280;4385;48.848;8.924;2023-02-19T14:08:58;98150.75;;;18.54;100.00
8697;BME280;4385;48.848;8.924;2023-02-19T14:17:25;98152.44;;;18.54;100.00
8697;BME280;4385;48.848;8.924;2023-02-19T14:19:53;98145.63;;;18.54;100.00
8697;BME280;4385;48.848;8.924;2023-02-19T14:25:37;98161.81;;;18.53;100.00
8697;BME280;4385;48.848;8.924;2023-02-19T14:28:27;98164.38;;;18.53;100.00
8697;BME280;4385;48.848;8.924;2023-02-19T14:31:07;98160.94;;;18.54;100.00
8697;BME280;4385;48.848;8.924;2023-02-19T14:33:36;98162.63;;;18.55;100.00
8697;BME280;4385;48.848;8.924;2023-02-19T14:36:05;98172.84;;;18.55;100.00
8697;BME280;4385;48.848;8.924;2023-02-19T14:38:46;98167.72;;;18.55;100.00
8697;BME280;4385;48.848;8.924;2023-02-19T14:41:14;98172.00;;;18.55;100.00
8697;BME280;4385;48.848;8.924;2023-02-19T14:43:42;98175.41;;;18.54;100.00